Time;durP1;ratioP1;P1;durP2;ratioP2;P2;SDS_P1;SDS_P2;PMS_P1;PMS_P2;Temp;Humidity;BMP_temperature;BMP_pressure;BME280_temperature;BME280_humidity;BME280_pressure;Samples;Min_cycle;Max_cycle;Signal;HPM_P1;HPM_P2
2022/10/11 00:01:45;;;;;;;0.45;0.45;;;;;;;16.27;43.15;102203.81;5075375;28;20029;-61
2022/10/11 00:04:10;;;;;;;0.40;0.38;;;;;;;16.24;43.43;102210.34;5075473;28;20427;-62
2022/10/11 00:06:36;;;;;;;2.38;0.63;;;;;;;16.22;44.19;102222.25;5075649;28;20029;-62
2022/10/11 00:09:03;;;;;;;5.57;0.73;;;;;;;16.18;43.68;102207.28;5075526;28;20393;-61
2022/10/11 00:11:28;;;;;;;5.05;0.90;;;;;;;16.17;43.03;102219.94;5075765;28;20029;-62
2022/10/11 00:13:54;;;;;;;3.78;0.93;;;;;;;16.15;43.21;102215.66;5075761;28;20028;-62
2022/10/11 00:16:19;;;;;;;0.93;0.50;;;;;;;16.12;43.18;102214.09;5057708;28;20036;-62
2022/10/11 00:18:44;;;;;;;3.13;0.75;;;;;;;16.09;44.72;102217.03;5057334;28;20021;-61
2022/10/11 00:21:12;;;;;;;4.25;1.00;;;;;;;15.88;44.52;102186.44;5057376;28;20116;-61
2022/10/11 00:23:38;;;;;;;1.08;0.52;;;;;;;16.03;44.80;102211.28;5057286;28;20033;-62
2022/10/11 00:26:05;;;;;;;2.78;0.82;;;;;;;15.98;44.50;102224.34;5075010;28;20123;-62
2022/10/11 00:28:31;;;;;;;0.85;0.60;;;;;;;15.95;43.70;102217.38;5057592;28;20028;-61
2022/10/11 00:30:56;;;;;;;1.95;1.00;;;;;;;15.98;43.54;102224.34;5024618;28;20039;-62
2022/10/11 00:33:22;;;;;;;6.70;1.35;;;;;;;15.95;44.33;102224.59;5057295;28;20064;-61
2022/10/11 00:35:47;;;;;;;2.75;0.98;;;;;;;15.89;44.51;102219.72;5057291;28;20028;-62
2022/10/11 00:38:13;;;;;;;5.38;1.45;;;;;;;15.93;44.11;102229.28;5040319;28;20036;-62
2022/10/11 00:40:38;;;;;;;1.60;1.05;;;;;;;15.92;44.71;102231.13;5075120;28;20035;-62
2022/10/11 00:43:13;;;;;;;7.32;0.68;;;;;;;15.90;43.38;102237.66;5075099;28;20067;-62
2022/10/11 00:45:39;;;;;;;1.60;0.50;;;;;;;15.85;43.33;102235.34;5057547;28;20032;-62
2022/10/11 00:48:17;;;;;;;2.42;0.47;;;;;;;15.77;44.51;102226.16;5057259;28;20040;-61
2022/10/11 00:50:43;;;;;;;6.15;0.93;;;;;;;15.78;44.08;102233.25;5058175;28;20036;-62
2022/10/11 00:53:10;;;;;;;0.35;0.32;;;;;;;15.74;43.42;102235.38;5057509;28;20020;-62
2022/10/11 00:55:39;;;;;;;0.40;0.30;;;;;;;15.68;43.44;102236.75;5057336;28;20027;-62
2022/10/11 00:58:05;;;;;;;1.30;0.57;;;;;;;15.68;43.37;102241.31;5056994;28;20028;-62
2022/10/11 01:00:30;;;;;;;5.35;1.45;;;;;;;15.67;43.59;102242.28;5057677;28;20068;-62
2022/10/11 01:02:56;;;;;;;2.03;0.68;;;;;;;15.64;44.43;102238.00;5075573;28;20035;-62
2022/10/11 01:05:22;;;;;;;6.32;0.80;;;;;;;15.60;43.65;102239.25;5058016;28;20020;-62
2022/10/11 01:07:47;;;;;;;2.97;0.93;;;;;;;15.62;43.27;102244.50;5057245;28;20031;-62
2022/10/11 01:10:13;;;;;;;5.45;0.95;;;;;;;15.63;44.20;102241.66;5041511;28;20025;-62
2022/10/11 01:12:57;;;;;;;3.30;1.08;;;;;;;15.55;44.28;102236.03;5057210;28;20493;-62
2022/10/11 01:15:33;;;;;;;2.85;1.00;;;;;;;15.60;44.82;102241.09;5060781;28;20500;-62
2022/10/11 01:18:05;;;;;;;0.77;0.28;;;;;;;15.59;43.72;102242.06;5061049;28;20032;-62
2022/10/11 01:20:34;;;;;;;1.23;0.70;;;;;;;15.57;45.12;102247.59;5078905;28;20024;-62
2022/10/11 01:23:18;;;;;;;1.27;0.80;;;;;;;15.54;44.94;102241.59;5078208;28;20028;-62
2022/10/11 01:25:52;;;;;;;2.30;0.60;;;;;;;15.50;43.63;102238.28;5060172;28;20052;-62
2022/10/11 01:28:17;;;;;;;1.45;0.30;;;;;;;15.48;43.30;102242.94;5078453;28;20052;-62
2022/10/11 01:30:43;;;;;;;1.63;0.75;;;;;;;15.41;44.31;102238.16;5078788;28;20059;-62
2022/10/11 01:33:34;;;;;;;2.72;0.60;;;;;;;15.42;44.52;102232.63;5078951;28;20027;-62
2022/10/11 01:36:02;;;;;;;4.43;1.10;;;;;;;15.40;44.85;102248.09;5060959;28;20077;-62
2022/10/11 01:38:51;;;;;;;3.05;0.88;;;;;;;15.37;44.52;102237.53;5078813;28;20024;-62
2022/10/11 01:41:26;;;;;;;3.35;0.70;;;;;;;15.34;44.08;102243.19;5078597;28;20020;-62
2022/10/11 01:43:55;;;;;;;1.05;0.70;;;;;;;15.33;44.28;102237.91;5061081;28;20024;-62
2022/10/11 01:46:20;;;;;;;0.82;0.75;;;;;;;15.31;44.81;102246.13;5060526;28;20505;-62
2022/10/11 01:48:53;;;;;;;5.45;1.80;;;;;;;15.31;44.58;102245.28;5078162;28;20041;-61
2022/10/11 01:51:19;;;;;;;;;;;;;;;15.30;43.75;102249.81;5078699;28;20024;-62
2022/10/11 01:53:47;;;;;;;3.25;0.90;;;;;;;15.29;43.66;102258.03;5059925;28;20284;-62
2022/10/11 01:56:51;;;;;;;2.38;0.50;;;;;;;15.26;44.73;102253.75;5078031;28;20111;-62
2022/10/11 02:00:00;;;;;;;1.83;0.73;;;;;;;15.22;44.68;102251.41;5057042;28;20063;-62
2022/10/11 02:02:39;;;;;;;3.33;1.13;;;;;;;15.20;44.70;102256.94;5059668;28;20032;-62
2022/10/11 02:05:13;;;;;;;1.35;0.88;;;;;;;15.20;43.67;102254.25;5077573;28;20032;-62
2022/10/11 02:08:08;;;;;;;3.38;0.82;;;;;;;15.17;44.77;102254.50;5077178;28;20031;-61
2022/10/11 02:10:39;;;;;;;0.98;0.70;;;;;;;15.10;43.47;102242.50;5077470;28;20032;-62
2022/10/11 02:13:14;;;;;;;1.67;1.10;;;;;;;15.13;45.03;102261.13;5060455;28;20031;-62
2022/10/11 02:15:40;;;;;;;4.35;1.30;;;;;;;15.11;43.37;102261.25;5078325;28;20485;-61
2022/10/11 02:18:09;;;;;;;1.00;0.68;;;;;;;15.04;43.73;102264.56;5059762;28;20123;-61
2022/10/11 02:20:36;;;;;;;4.10;0.70;;;;;;;15.08;43.64;102266.88;5059804;28;20393;-62
2022/10/11 02:23:24;;;;;;;0.82;0.70;;;;;;;15.06;43.43;102273.38;5060323;28;20029;-62
2022/10/11 02:25:51;;;;;;;5.38;0.50;;;;;;;15.02;43.93;102274.59;5059677;28;20044;-62
2022/10/11 02:28:21;;;;;;;0.65;0.65;;;;;;;14.99;44.20;102270.31;5077811;28;20032;-62
2022/10/11 02:30:49;;;;;;;1.58;0.90;;;;;;;14.97;44.03;102268.72;5060093;28;20039;-61
2022/10/11 02:33:17;;;;;;;1.30;0.90;;;;;;;14.95;43.40;102265.28;5060000;28;20079;-61
2022/10/11 02:35:46;;;;;;;1.95;0.70;;;;;;;14.94;44.06;102274.34;5043148;28;20084;-62
2022/10/11 02:38:24;;;;;;;2.55;1.10;;;;;;;14.94;44.65;102279.75;5058923;28;20036;-62
2022/10/11 02:40:54;;;;;;;1.90;0.45;;;;;;;14.92;44.99;102268.22;5042511;28;20401;-62
2022/10/11 02:43:27;;;;;;;3.92;0.70;;;;;;;14.92;44.63;102279.03;5059608;28;20086;-62
2022/10/11 02:45:55;;;;;;;24.55;1.35;;;;;;;14.90;44.42;102278.28;5043180;28;20385;-62
2022/10/11 02:48:22;;;;;;;4.63;1.00;;;;;;;14.89;44.26;102277.44;5060042;28;20045;-62
2022/10/11 02:50:48;;;;;;;3.35;1.45;;;;;;;14.88;44.43;102282.97;5059421;28;20077;-62
2022/10/11 02:53:13;;;;;;;6.45;1.48;;;;;;;14.86;43.87;102279.50;5059229;28;20499;-62
2022/10/11 02:55:39;;;;;;;7.70;1.30;;;;;;;14.86;45.11;102285.75;5077197;28;20032;-62
2022/10/11 02:58:04;;;;;;;10.05;1.15;;;;;;;14.83;44.48;102287.84;5077607;28;20110;-61
2022/10/11 03:00:30;;;;;;;4.70;0.98;;;;;;;14.80;45.13;102290.78;5077711;28;20029;-61
2022/10/11 03:02:55;;;;;;;2.78;1.13;;;;;;;14.78;44.28;102290.03;5059446;28;20029;-62
2022/10/11 03:05:21;;;;;;;13.65;1.17;;;;;;;14.76;45.07;102297.41;5077266;28;20127;-62
2022/10/11 03:07:46;;;;;;;6.40;1.10;;;;;;;14.75;43.83;102290.28;5058814;28;20028;-62
2022/10/11 03:10:11;;;;;;;7.63;1.52;;;;;;;14.71;44.50;102294.22;5076404;28;20052;-62
2022/10/11 03:12:37;;;;;;;24.73;2.20;;;;;;;14.74;44.18;102293.97;5058500;28;20032;-61
2022/10/11 03:15:03;;;;;;;6.40;1.13;;;;;;;14.72;44.17;102291.38;5058563;28;20040;-62
2022/10/11 03:17:28;;;;;;;6.45;1.77;;;;;;;14.72;45.55;102293.22;5077255;28;20497;-62
2022/10/11 03:19:54;;;;;;;8.70;1.98;;;;;;;14.71;44.32;102291.53;5076845;28;20035;-62
2022/10/11 03:22:19;;;;;;;5.05;1.85;;;;;;;14.69;44.12;102298.84;5075972;28;20062;-62
2022/10/11 03:24:45;;;;;;;5.72;1.83;;;;;;;14.68;45.26;102297.16;5058516;28;20489;-61
2022/10/11 03:27:11;;;;;;;7.65;1.77;;;;;;;14.64;45.28;102285.72;5076526;28;20036;-61
2022/10/11 03:29:36;;;;;;;3.45;1.70;;;;;;;14.66;44.73;102291.00;5058787;28;20048;-62
2022/10/11 03:32:01;;;;;;;4.57;1.52;;;;;;;14.65;44.96;102294.69;5042153;28;20398;-62
2022/10/11 03:34:27;;;;;;;2.88;1.13;;;;;;;14.65;45.39;102294.69;5076070;28;20029;-62
2022/10/11 03:36:52;;;;;;;1.70;1.10;;;;;;;14.63;44.86;102302.88;5057847;28;20040;-62
2022/10/11 03:39:18;;;;;;;1.33;1.23;;;;;;;14.58;44.89;102292.47;5077083;28;20028;-61
2022/10/11 03:41:43;;;;;;;2.10;1.00;;;;;;;14.60;45.10;102291.50;5076619;28;20032;-61
2022/10/11 03:44:09;;;;;;;2.03;1.20;;;;;;;14.52;44.49;102287.53;5076365;28;20024;-61
2022/10/11 03:46:34;;;;;;;1.05;0.93;;;;;;;14.58;45.02;102303.25;5076220;28;20116;-61
2022/10/11 03:49:00;;;;;;;1.75;0.60;;;;;;;14.55;45.25;102308.88;5057722;28;20055;-62
2022/10/11 03:51:25;;;;;;;0.75;0.57;;;;;;;14.53;45.29;102309.97;5076531;28;20106;-62
2022/10/11 03:53:50;;;;;;;1.48;1.30;;;;;;;14.51;45.46;102310.09;5058614;28;20071;-62
2022/10/11 03:56:16;;;;;;;4.88;1.58;;;;;;;14.47;44.83;102308.63;5076513;28;20111;-61
2022/10/11 03:58:41;;;;;;;2.05;1.08;;;;;;;14.49;45.45;102316.56;5058666;28;20055;-62
2022/10/11 04:01:07;;;;;;;2.13;1.27;;;;;;;14.47;44.16;102316.69;5076007;28;20563;-62
2022/10/11 04:03:33;;;;;;;1.50;1.40;;;;;;;14.46;45.21;102312.28;5057733;28;20504;-62
2022/10/11 04:05:58;;;;;;;1.67;1.25;;;;;;;14.46;44.29;102317.66;5058466;28;20456;-61
2022/10/11 04:08:23;;;;;;;2.33;1.13;;;;;;;14.44;45.12;102318.75;5058370;28;20111;-62
2022/10/11 04:10:49;;;;;;;2.03;0.98;;;;;;;14.40;44.54;102323.56;5076206;28;20063;-61
2022/10/11 04:13:15;;;;;;;1.33;0.90;;;;;;;14.37;45.55;102329.19;5058359;28;20031;-61
2022/10/11 04:15:40;;;;;;;2.97;1.42;;;;;;;14.31;44.47;102324.22;5076493;28;20033;-62
2022/10/11 04:18:06;;;;;;;3.53;1.08;;;;;;;14.30;44.36;102327.88;5042223;28;20032;-62
2022/10/11 04:20:32;;;;;;;1.17;0.80;;;;;;;14.28;45.20;102328.97;5076345;28;20017;-61
2022/10/11 04:22:57;;;;;;;1.25;0.90;;;;;;;14.25;44.07;102330.06;5076307;28;20039;-62
2022/10/11 04:25:22;;;;;;;5.70;1.27;;;;;;;14.24;44.24;102339.13;5041754;28;20478;-62
2022/10/11 04:27:48;;;;;;;2.90;1.25;;;;;;;14.10;44.94;102314.22;5076505;28;20093;-61
2022/10/11 04:30:13;;;;;;;1.83;1.10;;;;;;;14.17;45.52;102334.31;5041363;28;20032;-62
2022/10/11 04:32:39;;;;;;;1.60;1.00;;;;;;;14.18;44.85;102339.56;5058154;28;20041;-61
2022/10/11 04:35:05;;;;;;;3.38;1.27;;;;;;;14.16;45.11;102341.53;5076757;28;20371;-62
2022/10/11 04:37:30;;;;;;;3.67;2.00;;;;;;;14.08;44.04;102329.59;5075756;28;20035;-62
2022/10/11 04:39:55;;;;;;;4.75;1.23;;;;;;;14.12;45.55;102341.88;5075315;28;20448;-62
2022/10/11 04:42:21;;;;;;;8.63;1.48;;;;;;;14.10;44.40;102339.28;5075399;28;20028;-62
2022/10/11 04:44:46;;;;;;;1.55;1.00;;;;;;;14.07;44.58;102339.53;5075639;28;20032;-62
2022/10/11 04:47:12;;;;;;;4.20;1.65;;;;;;;14.02;44.45;102336.31;5075337;28;20040;-62
2022/10/11 04:49:37;;;;;;;3.70;1.35;;;;;;;13.99;44.28;102339.22;5078125;28;20043;-62
2022/10/11 04:52:03;;;;;;;10.73;1.42;;;;;;;14.02;45.27;102344.41;5061699;28;20024;-62
2022/10/11 04:54:28;;;;;;;11.57;2.38;;;;;;;14.01;44.33;102348.91;5061116;28;20099;-62
2022/10/11 04:56:53;;;;;;;18.23;3.10;;;;;;;14.01;44.42;102359.69;5080114;28;20383;-61
2022/10/11 04:59:19;;;;;;;4.65;2.40;;;;;;;14.01;45.67;102348.09;5061792;28;20056;-62
2022/10/11 05:01:44;;;;;;;6.93;3.13;;;;;;;14.01;45.63;102348.09;5078901;28;20024;-62
2022/10/11 05:04:10;;;;;;;3.60;2.67;;;;;;;14.01;44.92;102350.78;5078769;28;20024;-62
2022/10/11 05:06:35;;;;;;;7.05;3.53;;;;;;;14.01;44.86;102354.31;5078771;28;20036;-62
2022/10/11 05:09:00;;;;;;;5.65;3.25;;;;;;;14.01;44.60;102358.88;5078718;28;20060;-62
2022/10/11 05:11:26;;;;;;;7.10;3.20;;;;;;;14.01;44.73;102353.47;5078674;28;20057;-62
2022/10/11 05:13:51;;;;;;;6.72;3.03;;;;;;;14.03;45.41;102362.28;5078587;28;20028;-61
2022/10/11 05:16:17;;;;;;;6.90;3.47;;;;;;;14.05;45.40;102359.47;5078790;28;20023;-62
2022/10/11 05:18:42;;;;;;;8.52;2.92;;;;;;;14.07;45.63;102358.38;5079177;28;20025;-61
2022/10/11 05:21:21;;;;;;;5.22;2.35;;;;;;;14.09;44.68;102364.53;5061383;28;20020;-62
2022/10/11 05:23:47;;;;;;;5.10;1.88;;;;;;;14.08;44.66;102368.19;5079335;28;20024;-62
2022/10/11 05:26:13;;;;;;;11.55;1.83;;;;;;;14.06;45.62;102367.47;5060976;28;20107;-62
2022/10/11 05:28:39;;;;;;;11.75;2.20;;;;;;;14.04;45.02;102364.03;5078585;28;20056;-62
2022/10/11 05:31:04;;;;;;;17.23;2.33;;;;;;;14.03;44.42;102373.06;5078569;28;20032;-62
2022/10/11 05:33:30;;;;;;;6.13;2.20;;;;;;;14.00;45.00;102371.47;5043915;28;20032;-62
2022/10/11 05:35:55;;;;;;;3.42;2.05;;;;;;;13.98;45.59;102384.19;5048668;28;20025;-62
2022/10/11 05:38:21;;;;;;;14.10;2.53;;;;;;;13.96;44.72;102383.44;5059409;28;20083;-62
2022/10/11 05:40:47;;;;;;;10.18;2.30;;;;;;;13.93;45.58;102378.25;5040820;28;20041;-62
2022/10/11 05:43:13;;;;;;;5.57;2.58;;;;;;;13.94;45.45;102373.75;5058588;28;20021;-61
2022/10/11 05:45:39;;;;;;;6.53;2.65;;;;;;;13.93;45.24;102372.88;5040279;28;20029;-62
2022/10/11 05:48:06;;;;;;;5.43;2.17;;;;;;;13.89;44.86;102376.78;5058128;28;20102;-62
2022/10/11 05:50:32;;;;;;;4.30;2.28;;;;;;;13.92;44.79;102391.88;5023609;28;20025;-61
2022/10/11 05:52:57;;;;;;;4.45;2.30;;;;;;;13.87;44.84;102384.09;5058941;28;20115;-61
2022/10/11 05:55:23;;;;;;;3.20;2.00;;;;;;;13.95;46.18;102388.94;5059370;28;20029;-62
2022/10/11 05:57:52;;;;;;;3.65;2.22;;;;;;;13.97;46.36;102392.38;5039861;28;20017;-62
2022/10/11 06:00:17;;;;;;;13.27;2.88;;;;;;;13.99;46.17;102390.44;5057941;28;20017;-61
2022/10/11 06:02:42;;;;;;;5.30;2.38;;;;;;;14.00;46.11;102389.47;5041996;28;20029;-61
2022/10/11 06:05:08;;;;;;;17.35;2.78;;;;;;;14.00;44.97;102405.63;5060627;28;20029;-62
2022/10/11 06:07:35;;;;;;;6.00;2.72;;;;;;;14.00;46.01;102395.72;5061318;28;20036;-62
2022/10/11 06:10:00;;;;;;;6.28;2.70;;;;;;;14.00;44.92;102401.09;5041073;28;20028;-61
2022/10/11 06:12:28;;;;;;;10.25;2.15;;;;;;;14.01;45.71;102397.41;5057851;28;20029;-61
2022/10/11 06:14:53;;;;;;;5.95;2.13;;;;;;;14.00;45.55;102401.09;5056547;28;20025;-61
2022/10/11 06:17:18;;;;;;;8.60;2.10;;;;;;;14.01;45.25;102407.38;5057647;28;20029;-61
2022/10/11 06:19:44;;;;;;;19.42;2.55;;;;;;;14.01;45.04;102401.97;5039610;28;20021;-61
2022/10/11 06:22:11;;;;;;;12.93;3.00;;;;;;;14.01;45.64;102401.97;5057801;28;20056;-61
2022/10/11 06:24:36;;;;;;;25.60;3.55;;;;;;;14.04;46.16;102417.06;5057441;28;20082;-61
2022/10/11 06:27:01;;;;;;;8.32;2.78;;;;;;;13.99;46.03;102409.28;5056385;28;20441;-61
2022/10/11 06:29:27;;;;;;;22.55;3.10;;;;;;;14.07;44.96;102416.81;5039551;28;20401;-61
2022/10/11 06:31:52;;;;;;;28.15;3.65;;;;;;;14.08;46.43;102414.00;5057840;28;20029;-61
2022/10/11 06:34:17;;;;;;;16.90;3.00;;;;;;;14.10;46.27;102422.00;5057706;28;20025;-61
2022/10/11 06:36:43;;;;;;;19.65;3.28;;;;;;;14.10;44.82;102420.13;5057014;28;20036;-62
2022/10/11 06:39:08;;;;;;;24.63;3.78;;;;;;;14.14;45.76;102427.03;5039289;28;20025;-62
2022/10/11 06:41:33;;;;;;;24.05;3.88;;;;;;;14.17;46.30;102424.13;5057268;28;20033;-62
2022/10/11 06:43:59;;;;;;;29.48;2.75;;;;;;;14.18;46.26;102420.44;5057157;28;20040;-62
2022/10/11 06:46:26;;;;;;;13.07;3.28;;;;;;;14.26;45.15;102434.22;5057574;28;20074;-61
2022/10/11 06:48:52;;;;;;;9.75;2.40;;;;;;;14.33;46.08;102429.25;5055796;28;20062;-62
2022/10/11 06:51:20;;;;;;;7.55;2.40;;;;;;;14.43;45.99;102433.84;5057681;28;20032;-62
2022/10/11 06:53:50;;;;;;;3.90;2.53;;;;;;;14.63;45.77;102436.91;5039421;28;20028;-62
2022/10/11 06:56:16;;;;;;;3.75;2.80;;;;;;;14.74;46.17;102439.63;5057719;28;20044;-62
2022/10/11 06:58:41;;;;;;;5.03;2.88;;;;;;;14.89;45.76;102449.25;5057318;28;20543;-62
2022/10/11 07:01:09;;;;;;;8.32;2.85;;;;;;;14.98;46.27;102453.94;5056746;28;20041;-61
2022/10/11 07:03:35;;;;;;;4.97;2.53;;;;;;;15.05;45.23;102450.66;5055807;28;20029;-61
2022/10/11 07:06:03;;;;;;;4.65;2.95;;;;;;;15.16;45.78;102455.22;5056257;28;20075;-62
2022/10/11 07:08:28;;;;;;;4.15;2.95;;;;;;;15.27;46.22;102455.22;5057115;28;20023;-61
2022/10/11 07:10:59;;;;;;;5.82;2.85;;;;;;;15.36;46.50;102459.94;5056839;28;20116;-62
2022/10/11 07:13:24;;;;;;;9.60;3.30;;;;;;;15.40;45.90;102461.41;5038449;28;20104;-62
2022/10/11 07:15:50;;;;;;;10.88;3.15;;;;;;;15.50;45.50;102462.44;5079772;28;20464;-62
2022/10/11 07:18:15;;;;;;;8.82;2.97;;;;;;;15.65;45.35;102463.94;5076491;28;20024;-62
2022/10/11 07:20:40;;;;;;;5.07;2.67;;;;;;;15.88;44.93;102467.50;5076666;28;20024;-62
2022/10/11 07:23:06;;;;;;;2.75;2.03;;;;;;;16.00;44.17;102465.63;5077006;28;20028;-61
2022/10/11 07:25:31;;;;;;;5.07;2.78;;;;;;;16.18;44.72;102464.16;5076749;28;20056;-62
2022/10/11 07:27:56;;;;;;;4.65;3.22;;;;;;;16.37;45.44;102464.34;5076813;28;20078;-62
2022/10/11 07:30:22;;;;;;;6.30;2.70;;;;;;;16.56;45.25;102470.00;5076648;28;20028;-62
2022/10/11 07:32:47;;;;;;;4.03;2.63;;;;;;;16.76;44.80;102471.88;5076767;28;20029;-61
2022/10/11 07:35:13;;;;;;;6.57;2.47;;;;;;;16.95;45.12;102475.72;5076843;28;20116;-62
2022/10/11 07:37:38;;;;;;;5.30;3.35;;;;;;;17.19;45.00;102468.25;5076804;28;20033;-62
2022/10/11 07:40:05;;;;;;;4.57;3.53;;;;;;;17.45;44.93;102472.25;5060706;28;20036;-62
2022/10/11 07:42:32;;;;;;;5.45;3.03;;;;;;;17.68;44.75;102481.97;5059679;28;20078;-62
2022/10/11 07:44:57;;;;;;;7.25;3.17;;;;;;;17.94;44.70;102485.97;5076518;28;20032;-61
2022/10/11 07:47:24;;;;;;;6.50;3.67;;;;;;;18.21;44.50;102485.34;5058156;28;20130;-62
2022/10/11 07:49:49;;;;;;;4.70;3.13;;;;;;;18.40;43.80;102479.09;5076052;28;20512;-61
2022/10/11 07:52:14;;;;;;;5.78;3.30;;;;;;;18.55;43.53;102480.47;5076132;28;20033;-62
2022/10/11 07:54:40;;;;;;;10.30;4.35;;;;;;;18.72;43.91;102474.34;5076396;28;20485;-61
2022/10/11 07:57:05;;;;;;;6.50;3.30;;;;;;;18.93;43.67;102472.31;5076246;28;20386;-62
2022/10/11 07:59:30;;;;;;;7.70;3.50;;;;;;;19.03;43.38;102470.50;5076333;28;20036;-61
2022/10/11 08:01:56;;;;;;;6.75;3.28;;;;;;;19.13;43.45;102467.75;5057935;28;20021;-61
2022/10/11 08:04:21;;;;;;;9.90;4.20;;;;;;;19.36;43.65;102474.59;5076248;28;20025;-61
2022/10/11 08:06:46;;;;;;;7.82;4.18;;;;;;;19.49;43.37;102463.41;5058273;28;20028;-62
2022/10/11 08:09:12;;;;;;;11.30;4.18;;;;;;;19.72;42.71;102470.22;5075676;28;20033;-61
2022/10/11 08:11:38;;;;;;;6.55;3.95;;;;;;;19.91;42.79;102474.72;5076111;28;20396;-62
2022/10/11 08:14:07;;;;;;;11.05;4.70;;;;;;;20.13;42.77;102477.91;5059128;28;20032;-62
2022/10/11 08:16:33;;;;;;;13.88;5.15;;;;;;;20.33;42.52;102471.41;5040115;28;20486;-62
2022/10/11 08:19:00;;;;;;;8.88;4.45;;;;;;;20.55;42.65;102471.97;5038693;28;20112;-62
2022/10/11 08:21:25;;;;;;;11.52;5.45;;;;;;;20.79;42.66;102461.34;5057518;28;20404;-62
2022/10/11 08:23:51;;;;;;;12.60;4.75;;;;;;;21.02;42.05;102472.63;5058272;28;20052;-62
2022/10/11 08:26:16;;;;;;;14.95;5.72;;;;;;;21.24;42.44;102467.56;5060864;28;20478;-61
2022/10/11 08:28:41;;;;;;;12.77;5.88;;;;;;;21.42;42.23;102482.00;5042519;28;20029;-62
2022/10/11 08:31:11;;;;;;;8.43;4.90;;;;;;;21.59;42.08;102471.19;5060470;28;20036;-62
2022/10/11 08:33:36;;;;;;;9.48;5.60;;;;;;;21.85;41.30;102475.63;5043033;28;20055;-62
2022/10/11 08:36:04;;;;;;;12.93;6.25;;;;;;;22.07;41.84;102471.50;5041944;28;20041;-62
2022/10/11 08:38:29;;;;;;;16.05;5.63;;;;;;;22.24;41.76;102478.75;5059691;28;20436;-62
2022/10/11 08:40:56;;;;;;;12.45;5.43;;;;;;;22.34;41.50;102473.13;5060174;28;20045;-61
2022/10/11 08:43:44;;;;;;;14.65;4.60;;;;;;;22.47;40.60;102482.56;5059753;28;20059;-61
2022/10/11 08:46:10;;;;;;;13.30;5.35;;;;;;;22.60;40.67;102480.22;5042288;28;20108;-61
2022/10/11 08:48:40;;;;;;;9.20;5.30;;;;;;;22.75;40.94;102476.84;5038734;28;20061;-62
2022/10/11 08:51:37;;;;;;;8.50;5.13;;;;;;;22.80;41.15;102479.94;5039706;28;20502;-61
2022/10/11 08:54:13;;;;;;;9.32;5.13;;;;;;;22.79;40.46;102487.28;5040199;28;20074;-61
2022/10/11 08:56:40;;;;;;;9.10;5.38;;;;;;;23.03;40.64;102481.00;5022093;28;20029;-61
2022/10/11 08:59:20;;;;;;;9.57;5.43;;;;;;;23.27;40.22;102482.84;5038804;28;20505;-61
2022/10/11 09:02:10;;;;;;;10.38;6.07;;;;;;;23.46;40.04;102486.13;5057079;28;20060;-62
2022/10/11 09:04:36;;;;;;;11.13;5.30;;;;;;;23.70;39.58;102491.53;5059315;28;20032;-61
2022/10/11 09:07:15;;;;;;;10.40;5.63;;;;;;;23.81;40.18;102482.13;5059589;28;20120;-61
2022/10/11 09:10:05;;;;;;;11.40;5.55;;;;;;;23.94;40.08;102487.03;5058166;28;20475;-61
2022/10/11 09:12:49;;;;;;;9.45;5.80;;;;;;;24.01;40.32;102485.31;5059383;28;20390;-61
2022/10/11 09:15:21;;;;;;;11.52;5.13;;;;;;;24.27;39.92;102484.03;5059324;28;20025;-60
2022/10/11 09:18:17;;;;;;;25.13;6.18;;;;;;;24.85;38.98;102478.06;5059614;28;20035;-60
2022/10/11 09:21:03;;;;;;;10.35;5.38;;;;;;;25.70;38.43;102481.44;5059122;28;20048;-60
2022/10/11 09:23:54;;;;;;;18.83;5.68;;;;;;;26.92;35.67;102476.06;5059091;28;20390;-60
2022/10/11 09:26:28;;;;;;;10.95;5.18;;;;;;;26.61;37.10;102479.09;5057949;28;20031;-60
2022/10/11 09:29:07;;;;;;;14.75;6.43;;;;;;;26.68;36.67;102478.31;5073946;28;20032;-60
2022/10/11 09:31:32;;;;;;;10.32;5.38;;;;;;;26.86;36.69;102476.00;5058189;28;20107;-61
2022/10/11 09:33:59;;;;;;;10.80;5.45;;;;;;;27.18;35.77;102480.97;5058231;28;20102;-61
2022/10/11 09:36:39;;;;;;;13.57;6.32;;;;;;;27.54;35.67;102491.91;5073092;28;20040;-61
2022/10/11 09:39:29;;;;;;;11.73;5.72;;;;;;;27.77;35.13;102487.00;5058212;28;20104;-60
2022/10/11 09:42:04;;;;;;;14.75;6.43;;;;;;;28.07;35.83;102488.47;5057134;28;20032;-60
2022/10/11 09:44:47;;;;;;;15.55;5.22;;;;;;;28.54;35.26;102484.00;5057812;28;20025;-61
2022/10/11 09:47:23;;;;;;;10.10;5.28;;;;;;;28.84;34.46;102486.22;5073764;28;20170;-61
2022/10/11 09:49:58;;;;;;;13.68;5.75;;;;;;;29.28;34.04;102474.66;5056687;28;20040;-60
2022/10/11 09:52:24;;;;;;;8.88;5.47;;;;;;;29.60;33.92;102477.56;5061085;28;20164;-61
2022/10/11 09:54:53;;;;;;;9.07;4.93;;;;;;;29.90;33.71;102470.56;5060251;28;20064;-60
2022/10/11 09:57:33;;;;;;;11.15;5.93;;;;;;;30.20;33.11;102476.41;5074379;28;20029;-61
2022/10/11 10:00:00;;;;;;;13.95;4.60;;;;;;;30.43;32.50;102472.06;5060767;28;20046;-60
2022/10/11 10:02:28;;;;;;;14.52;5.35;;;;;;;30.67;32.15;102469.59;5060288;28;20478;-61
2022/10/11 10:04:56;;;;;;;9.50;4.70;;;;;;;30.87;32.24;102475.88;5058869;28;20025;-61
2022/10/11 10:07:21;;;;;;;14.00;5.47;;;;;;;31.09;31.94;102468.91;5058971;28;20482;-60
2022/10/11 10:09:48;;;;;;;8.48;5.10;;;;;;;31.28;31.80;102465.13;5058794;28;20029;-60
2022/10/11 10:12:22;;;;;;;9.63;4.55;;;;;;;31.40;31.52;102470.78;5042003;28;20031;-61
2022/10/11 10:15:13;;;;;;;9.68;4.93;;;;;;;31.62;31.64;102467.41;5062002;28;20029;-61
2022/10/11 10:17:47;;;;;;;12.73;4.88;;;;;;;31.45;31.89;102466.25;5059133;28;20025;-60
2022/10/11 10:20:19;;;;;;;12.35;4.53;;;;;;;31.79;30.99;102472.34;5059675;28;20107;-60
2022/10/11 10:22:45;;;;;;;8.75;4.05;;;;;;;31.95;31.01;102469.81;5075012;28;20029;-60
2022/10/11 10:25:21;;;;;;;9.13;5.07;;;;;;;32.17;30.53;102470.22;5060078;28;20033;-61
2022/10/11 10:27:58;;;;;;;9.38;4.25;;;;;;;32.39;29.83;102474.19;5058313;28;20516;-60
2022/10/11 10:30:24;;;;;;;7.82;3.42;;;;;;;32.49;30.19;102468.97;5059495;28;20025;-59
2022/10/11 10:33:07;;;;;;;10.75;3.80;;;;;;;32.58;29.33;102464.78;5058091;28;20025;-58
2022/10/11 10:35:54;;;;;;;9.88;3.92;;;;;;;32.66;29.66;102460.84;5075566;28;20051;-61
2022/10/11 10:38:39;;;;;;;8.20;3.85;;;;;;;32.74;30.00;102461.38;5059362;28;20070;-58
2022/10/11 10:41:08;;;;;;;10.70;3.55;;;;;;;32.81;30.03;102467.66;5059771;28;20115;-59
2022/10/11 10:43:36;;;;;;;7.72;4.40;;;;;;;32.93;29.17;102464.91;5059731;28;20044;-59
2022/10/11 10:46:13;;;;;;;8.15;3.97;;;;;;;33.04;29.25;102460.47;5060225;28;20036;-59
2022/10/11 10:48:47;;;;;;;7.90;3.42;;;;;;;33.15;29.70;102451.34;5068263;28;20127;-59
2022/10/11 10:51:38;;;;;;;8.00;3.33;;;;;;;33.33;28.26;102448.47;5062720;28;20067;-59
2022/10/11 10:54:22;;;;;;;7.72;3.00;;;;;;;33.42;29.05;102457.28;5080350;28;20021;-59
2022/10/11 10:56:55;;;;;;;6.05;2.85;;;;;;;33.45;29.01;102446.50;5080561;28;20048;-59
2022/10/11 10:59:49;;;;;;;6.78;1.63;;;;;;;33.45;28.35;102435.41;5079355;28;20039;-59
2022/10/11 11:02:27;;;;;;;6.05;1.83;;;;;;;33.64;28.06;102450.88;5080742;28;20024;-59
2022/10/11 11:05:00;;;;;;;7.28;1.30;;;;;;;33.73;27.78;102454.16;5080542;28;20032;-60
2022/10/11 11:07:35;;;;;;;4.43;1.50;;;;;;;33.66;27.43;102445.09;5061489;28;20021;-59
2022/10/11 11:10:14;;;;;;;4.97;1.48;;;;;;;33.35;27.79;102446.28;5060891;28;20436;-59
2022/10/11 11:13:07;;;;;;;4.70;1.25;;;;;;;33.48;26.78;102445.19;5079022;28;20020;-59
2022/10/11 11:15:38;;;;;;;7.10;1.02;;;;;;;33.47;27.39;102440.72;5078030;28;20024;-59
2022/10/11 11:18:29;;;;;;;8.68;1.33;;;;;;;33.61;26.60;102453.34;5060976;28;20025;-59
2022/10/11 11:21:19;;;;;;;4.90;1.50;;;;;;;33.64;26.70;102441.72;5078250;28;20413;-59
2022/10/11 11:24:03;;;;;;;3.50;1.63;;;;;;;33.59;27.69;102447.16;5078219;28;20165;-59
2022/10/11 11:26:43;;;;;;;3.60;1.98;;;;;;;33.58;26.76;102440.75;5078412;28;20111;-59
2022/10/11 11:29:18;;;;;;;5.75;1.10;;;;;;;33.54;26.40;102439.50;5078728;28;20032;-60
2022/10/11 11:32:04;;;;;;;4.57;2.22;;;;;;;33.48;27.23;102426.56;5078680;28;20020;-59
2022/10/11 11:34:39;;;;;;;2.78;1.27;;;;;;;33.31;26.85;102434.78;5060562;28;20024;-59
2022/10/11 11:37:36;;;;;;;4.35;1.35;;;;;;;32.62;27.22;102435.47;5079334;28;20024;-59